History for KNYMANHA11

New York City, Manhattan, NY — Current Conditions
Daily Summary for August 22, 2017
  Current: High: Low: Average:
Temperature: 77.7°F 77.7°F 74.8°F 76.2°F
Dew Point: 57.4°F 57.9°F 54.7°F 56.1°F
Humidity: 49% 50% 49% 49%
Wind Speed: - 0.0mph - 0.0mph
Wind Gust: - 0.0mph - -
Wind: North - - North
Pressure: 29.80in 30.10in 29.80in -
Precipitation: 0.00in      
Statistics for the rest of the month
    High: Low: Average:
Temperature:   81.3°F 74.7°F 77.8°F
Dew Point:   61.3°F 54.7°F 57.9°F
Humidity:   51.0% 49.0% 49.7%
Wind Speed:   0.0mph from the North - 0.0mph
Wind Gust:   0.0mph from the North - -
Wind:   - - North
Pressure:   30.25in 29.76in -
Precipitation:   0.00in    
KNYMANHA11 Weather Graph
Tabular Data for August 22, 2017
Time Temp. Dew Point Pressure Wind Gust Humidity Rainfall
00:13 76.5°F 56.2°F 30.10in - 49% -
00:33 76.3°F 56.1°F 30.09in - 49% -
00:43 76.1°F 55.9°F 30.09in - 49% -
01:03 75.9°F 55.7°F 30.09in - 49% -
01:13 75.9°F 55.7°F 30.09in - 49% -
01:33 75.7°F 55.6°F 30.08in - 49% -
01:43 75.7°F 55.6°F 30.07in - 49% -
02:03 75.6°F 55.4°F 30.06in - 49% -
02:13 75.6°F 55.4°F 30.06in - 49% -
02:33 75.4°F 55.2°F 30.06in - 49% -
02:43 75.4°F 55.2°F 30.06in - 49% -
03:03 75.2°F 55.1°F 30.06in - 49% -
03:13 75.2°F 55.1°F 30.06in - 49% -
03:33 75.0°F 54.9°F 30.04in - 49% -
03:43 75.0°F 54.9°F 30.04in - 49% -
04:13 75.0°F 54.9°F 30.04in - 49% -
04:34 74.8°F 54.7°F 30.04in - 49% -
04:44 74.8°F 54.7°F 30.03in - 49% -
05:04 74.8°F 54.7°F 30.03in - 49% -
05:14 74.8°F 54.7°F 30.03in - 49% -
05:34 75.0°F 54.9°F 30.03in - 49% -
05:44 75.2°F 55.1°F 30.03in - 49% -
06:04 75.4°F 55.2°F 30.03in - 49% -
06:14 75.6°F 55.4°F 30.03in - 49% -
06:34 75.7°F 56.1°F 30.03in - 50% -
06:44 75.9°F 55.7°F 30.03in - 49% -
07:04 75.9°F 55.7°F 30.03in - 49% -
07:14 75.9°F 55.7°F 30.03in - 49% -
07:44 76.1°F 55.9°F 30.03in - 49% -
08:14 76.5°F 56.2°F 30.03in - 49% -
08:34 76.6°F 56.9°F 30.03in - 50% -
08:44 76.6°F 56.9°F 30.02in - 50% -
09:04 76.8°F 57.1°F 30.02in - 50% -
09:14 77.0°F 57.3°F 30.01in - 50% -
09:34 77.0°F 56.7°F 30.01in - 49% -
09:44 77.0°F 56.7°F 30.01in - 49% -
10:14 77.2°F 56.9°F 30.00in - 49% -
10:48 77.4°F 57.6°F 29.99in - 50% -
11:18 77.5°F 57.2°F 29.99in - 49% -
11:48 77.4°F 57.1°F 29.97in - 49% -
12:18 77.4°F 57.1°F 29.96in - 49% -
12:48 77.5°F 57.2°F 29.95in - 49% -
13:18 77.7°F 57.4°F 29.94in - 49% -
13:48 77.7°F 57.4°F 29.92in - 49% -
14:18 77.5°F 57.2°F 29.90in - 49% -
14:48 77.4°F 57.1°F 29.88in - 49% -
15:18 77.2°F 56.9°F 29.86in - 49% -
15:48 77.0°F 56.7°F 29.84in - 49% -
16:18 77.2°F 56.9°F 29.83in - 49% -
16:48 77.4°F 57.1°F 29.82in - 49% -
17:18 77.7°F 57.9°F 29.81in - 50% -
17:48 77.7°F 57.4°F 29.80in - 49% -
Comma Delimited File
Powered by Weather Underground, Inc.